sensor_id;sensor_type;location;lat;lon;timestamp;pressure;altitude;pressure_sealevel;temperature;humidity
6433;BME280;3249;42.690;23.260;2023-04-04T00:01:57;92822.34;;;6.45;100.00
6433;BME280;3249;42.690;23.260;2023-04-04T00:04:27;92822.47;;;6.38;100.00
6433;BME280;3249;42.690;23.260;2023-04-04T00:06:55;92813.81;;;6.39;100.00
6433;BME280;3249;42.690;23.260;2023-04-04T00:09:24;92811.44;;;6.49;100.00
6433;BME280;3249;42.690;23.260;2023-04-04T00:11:53;92808.41;;;6.64;100.00
6433;BME280;3249;42.690;23.260;2023-04-04T00:14:25;92809.16;;;6.64;100.00
6433;BME280;3249;42.690;23.260;2023-04-04T00:16:54;92799.44;;;6.50;100.00
6433;BME280;3249;42.690;23.260;2023-04-04T00:19:23;92781.53;;;6.50;100.00
6433;BME280;3249;42.690;23.260;2023-04-04T00:21:52;92804.59;;;6.66;100.00
6433;BME280;3249;42.690;23.260;2023-04-04T00:24:21;92806.16;;;6.67;100.00
6433;BME280;3249;42.690;23.260;2023-04-04T00:26:50;92808.63;;;6.90;100.00
6433;BME280;3249;42.690;23.260;2023-04-04T00:29:20;92792.03;;;6.93;100.00
6433;BME280;3249;42.690;23.260;2023-04-04T00:31:51;92802.66;;;7.01;100.00
6433;BME280;3249;42.690;23.260;2023-04-04T00:34:20;92795.22;;;7.00;100.00
6433;BME280;3249;42.690;23.260;2023-04-04T00:36:49;92798.09;;;7.03;100.00
6433;BME280;3249;42.690;23.260;2023-04-04T00:39:19;92795.38;;;7.10;100.00
6433;BME280;3249;42.690;23.260;2023-04-04T00:41:48;92792.16;;;7.14;100.00
6433;BME280;3249;42.690;23.260;2023-04-04T00:44:17;92796.25;;;7.15;100.00
6433;BME280;3249;42.690;23.260;2023-04-04T00:46:46;92797.09;;;7.21;100.00
6433;BME280;3249;42.690;23.260;2023-04-04T00:49:18;92786.94;;;7.26;100.00
6433;BME280;3249;42.690;23.260;2023-04-04T00:51:47;92777.97;;;7.23;100.00
6433;BME280;3249;42.690;23.260;2023-04-04T00:54:16;92780.34;;;7.30;100.00
6433;BME280;3249;42.690;23.260;2023-04-04T00:56:46;92784.34;;;7.37;100.00
6433;BME280;3249;42.690;23.260;2023-04-04T00:59:20;92785.31;;;7.36;100.00
6433;BME280;3249;42.690;23.260;2023-04-04T01:01:49;92796.47;;;7.47;100.00
6433;BME280;3249;42.690;23.260;2023-04-04T01:04:21;92797.81;;;7.49;100.00
6433;BME280;3249;42.690;23.260;2023-04-04T01:06:50;92796.66;;;7.57;100.00
6433;BME280;3249;42.690;23.260;2023-04-04T01:09:19;92803.31;;;7.58;100.00
6433;BME280;3249;42.690;23.260;2023-04-04T01:11:48;92810.31;;;7.62;100.00
6433;BME280;3249;42.690;23.260;2023-04-04T01:14:17;92811.84;;;7.63;100.00
6433;BME280;3249;42.690;23.260;2023-04-04T01:16:47;92816.75;;;7.65;100.00
6433;BME280;3249;42.690;23.260;2023-04-04T01:19:25;92819.13;;;7.71;100.00
6433;BME280;3249;42.690;23.260;2023-04-04T01:21:58;92788.56;;;7.48;100.00
6433;BME280;3249;42.690;23.260;2023-04-04T01:24:32;92813.31;;;7.59;100.00
6433;BME280;3249;42.690;23.260;2023-04-04T01:27:06;92810.13;;;7.69;100.00
6433;BME280;3249;42.690;23.260;2023-04-04T01:29:42;92758.75;;;7.37;100.00
6433;BME280;3249;42.690;23.260;2023-04-04T01:32:18;92794.22;;;7.67;100.00
6433;BME280;3249;42.690;23.260;2023-04-04T01:34:57;92811.28;;;7.94;100.00
6433;BME280;3249;42.690;23.260;2023-04-04T01:37:34;92808.38;;;8.07;100.00
6433;BME280;3249;42.690;23.260;2023-04-04T01:40:11;92806.94;;;8.16;100.00
6433;BME280;3249;42.690;23.260;2023-04-04T01:42:47;92802.69;;;8.22;100.00
6433;BME280;3249;42.690;23.260;2023-04-04T01:45:17;92796.47;;;8.18;100.00
6433;BME280;3249;42.690;23.260;2023-04-04T01:47:48;92777.50;;;7.97;100.00
6433;BME280;3249;42.690;23.260;2023-04-04T01:50:20;92784.38;;;7.75;100.00
6433;BME280;3249;42.690;23.260;2023-04-04T01:52:49;92767.63;;;7.68;100.00
6433;BME280;3249;42.690;23.260;2023-04-04T01:55:19;92764.25;;;7.84;100.00
6433;BME280;3249;42.690;23.260;2023-04-04T01:57:51;92758.00;;;7.58;100.00
6433;BME280;3249;42.690;23.260;2023-04-04T02:00:22;92762.00;;;7.87;100.00
6433;BME280;3249;42.690;23.260;2023-04-04T02:02:51;92762.66;;;7.99;100.00
6433;BME280;3249;42.690;23.260;2023-04-04T02:05:20;92760.34;;;7.98;100.00
6433;BME280;3249;42.690;23.260;2023-04-04T02:07:49;92769.66;;;8.04;100.00
6433;BME280;3249;42.690;23.260;2023-04-04T02:10:29;92771.84;;;8.17;100.00
6433;BME280;3249;42.690;23.260;2023-04-04T02:13:01;92773.34;;;8.13;100.00
6433;BME280;3249;42.690;23.260;2023-04-04T02:15:31;92772.66;;;8.01;100.00
6433;BME280;3249;42.690;23.260;2023-04-04T02:18:01;92756.94;;;7.92;100.00
6433;BME280;3249;42.690;23.260;2023-04-04T02:20:30;92754.13;;;7.94;100.00
6433;BME280;3249;42.690;23.260;2023-04-04T02:22:59;92760.47;;;7.70;100.00
6433;BME280;3249;42.690;23.260;2023-04-04T02:25:28;92760.69;;;7.85;100.00
6433;BME280;3249;42.690;23.260;2023-04-04T02:27:57;92754.06;;;7.89;100.00
6433;BME280;3249;42.690;23.260;2023-04-04T02:30:28;92763.44;;;8.00;100.00
6433;BME280;3249;42.690;23.260;2023-04-04T02:32:58;92760.88;;;8.00;100.00
6433;BME280;3249;42.690;23.260;2023-04-04T02:35:28;92766.91;;;8.10;100.00
6433;BME280;3249;42.690;23.260;2023-04-04T02:37:57;92768.16;;;8.08;100.00
6433;BME280;3249;42.690;23.260;2023-04-04T02:40:36;92762.81;;;8.09;100.00
6433;BME280;3249;42.690;23.260;2023-04-04T02:43:07;92763.63;;;7.93;100.00
6433;BME280;3249;42.690;23.260;2023-04-04T02:45:39;92771.34;;;7.77;100.00
6433;BME280;3249;42.690;23.260;2023-04-04T02:48:23;92767.16;;;7.92;100.00
6433;BME280;3249;42.690;23.260;2023-04-04T02:50:58;92771.97;;;8.05;100.00
6433;BME280;3249;42.690;23.260;2023-04-04T02:53:28;92764.56;;;7.87;100.00
6433;BME280;3249;42.690;23.260;2023-04-04T02:56:02;92776.66;;;7.92;100.00
6433;BME280;3249;42.690;23.260;2023-04-04T02:58:32;92775.06;;;8.07;100.00
6433;BME280;3249;42.690;23.260;2023-04-04T03:01:04;92777.84;;;8.22;100.00
6433;BME280;3249;42.690;23.260;2023-04-04T03:03:36;92783.31;;;8.09;100.00
6433;BME280;3249;42.690;23.260;2023-04-04T03:06:05;92782.97;;;8.06;100.00
6433;BME280;3249;42.690;23.260;2023-04-04T03:08:34;92785.25;;;8.02;100.00
6433;BME280;3249;42.690;23.260;2023-04-04T03:11:04;92787.44;;;7.94;100.00
6433;BME280;3249;42.690;23.260;2023-04-04T03:13:33;92784.53;;;7.85;100.00
6433;BME280;3249;42.690;23.260;2023-04-04T03:16:05;92778.34;;;7.65;100.00
6433;BME280;3249;42.690;23.260;2023-04-04T03:18:45;92784.06;;;7.55;100.00
6433;BME280;3249;42.690;23.260;2023-04-04T03:21:18;92787.38;;;7.72;100.00
6433;BME280;3249;42.690;23.260;2023-04-04T03:23:49;92780.25;;;7.74;100.00
6433;BME280;3249;42.690;23.260;2023-04-04T03:26:18;92784.06;;;7.72;100.00
6433;BME280;3249;42.690;23.260;2023-04-04T03:28:47;92776.84;;;7.69;100.00
6433;BME280;3249;42.690;23.260;2023-04-04T03:31:22;92772.63;;;7.41;100.00
6433;BME280;3249;42.690;23.260;2023-04-04T03:33:51;92782.53;;;7.54;100.00
6433;BME280;3249;42.690;23.260;2023-04-04T03:36:21;92782.06;;;7.57;100.00
6433;BME280;3249;42.690;23.260;2023-04-04T03:38:50;92786.00;;;7.65;100.00
6433;BME280;3249;42.690;23.260;2023-04-04T03:41:19;92787.03;;;7.64;100.00
6433;BME280;3249;42.690;23.260;2023-04-04T03:43:48;92784.69;;;7.62;100.00
6433;BME280;3249;42.690;23.260;2023-04-04T03:46:17;92786.81;;;7.65;100.00
6433;BME280;3249;42.690;23.260;2023-04-04T03:48:49;92781.34;;;7.78;100.00
6433;BME280;3249;42.690;23.260;2023-04-04T03:51:22;92782.66;;;7.81;100.00
6433;BME280;3249;42.690;23.260;2023-04-04T03:53:52;92789.41;;;7.87;100.00
6433;BME280;3249;42.690;23.260;2023-04-04T03:56:22;92786.53;;;7.83;100.00
6433;BME280;3249;42.690;23.260;2023-04-04T03:58:52;92790.56;;;7.79;100.00
6433;BME280;3249;42.690;23.260;2023-04-04T04:01:22;92788.47;;;7.76;100.00
6433;BME280;3249;42.690;23.260;2023-04-04T04:03:54;92787.72;;;7.76;100.00
6433;BME280;3249;42.690;23.260;2023-04-04T04:06:23;92786.06;;;7.70;100.00
6433;BME280;3249;42.690;23.260;2023-04-04T04:08:52;92789.66;;;7.69;100.00
6433;BME280;3249;42.690;23.260;2023-04-04T04:11:23;92785.63;;;7.56;100.00
6433;BME280;3249;42.690;23.260;2023-04-04T04:13:52;92784.53;;;7.52;100.00
6433;BME280;3249;42.690;23.260;2023-04-04T04:16:21;92768.72;;;7.39;100.00
6433;BME280;3249;42.690;23.260;2023-04-04T04:18:51;92785.03;;;7.49;100.00
6433;BME280;3249;42.690;23.260;2023-04-04T04:21:33;92788.72;;;7.42;100.00
6433;BME280;3249;42.690;23.260;2023-04-04T04:24:03;92796.41;;;7.42;100.00
6433;BME280;3249;42.690;23.260;2023-04-04T04:26:32;92792.94;;;7.31;100.00
6433;BME280;3249;42.690;23.260;2023-04-04T04:29:03;92801.28;;;7.27;100.00
6433;BME280;3249;42.690;23.260;2023-04-04T04:31:36;92776.78;;;7.14;100.00
6433;BME280;3249;42.690;23.260;2023-04-04T04:34:07;92802.38;;;7.14;100.00
6433;BME280;3249;42.690;23.260;2023-04-04T04:36:40;92807.03;;;7.17;100.00
6433;BME280;3249;42.690;23.260;2023-04-04T04:39:21;92804.56;;;7.22;100.00
6433;BME280;3249;42.690;23.260;2023-04-04T04:42:10;92816.63;;;7.27;100.00
6433;BME280;3249;42.690;23.260;2023-04-04T04:44:46;92815.44;;;7.29;100.00
6433;BME280;3249;42.690;23.260;2023-04-04T04:47:15;92821.16;;;7.36;100.00
6433;BME280;3249;42.690;23.260;2023-04-04T04:49:45;92823.19;;;7.34;100.00
6433;BME280;3249;42.690;23.260;2023-04-04T04:52:20;92828.28;;;7.34;100.00
6433;BME280;3249;42.690;23.260;2023-04-04T04:54:50;92820.44;;;7.24;100.00
6433;BME280;3249;42.690;23.260;2023-04-04T04:57:22;92833.88;;;7.31;100.00
6433;BME280;3249;42.690;23.260;2023-04-04T04:59:52;92832.25;;;7.25;100.00
6433;BME280;3249;42.690;23.260;2023-04-04T05:02:24;92825.47;;;7.19;100.00
6433;BME280;3249;42.690;23.260;2023-04-04T05:04:54;92835.50;;;7.21;100.00
6433;BME280;3249;42.690;23.260;2023-04-04T05:07:27;92848.44;;;7.31;100.00
6433;BME280;3249;42.690;23.260;2023-04-04T05:09:56;92850.47;;;7.29;100.00
6433;BME280;3249;42.690;23.260;2023-04-04T05:12:25;92849.69;;;7.28;100.00
6433;BME280;3249;42.690;23.260;2023-04-04T05:14:54;92850.00;;;7.32;100.00
6433;BME280;3249;42.690;23.260;2023-04-04T05:17:24;92848.38;;;7.42;100.00
6433;BME280;3249;42.690;23.260;2023-04-04T05:19:57;92849.63;;;7.56;100.00
6433;BME280;3249;42.690;23.260;2023-04-04T05:22:29;92849.56;;;7.68;100.00
6433;BME280;3249;42.690;23.260;2023-04-04T05:24:58;92857.03;;;7.69;100.00
6433;BME280;3249;42.690;23.260;2023-04-04T05:27:27;92861.53;;;7.79;100.00
6433;BME280;3249;42.690;23.260;2023-04-04T05:29:59;92863.81;;;7.80;100.00
6433;BME280;3249;42.690;23.260;2023-04-04T05:32:37;92866.84;;;7.94;100.00
6433;BME280;3249;42.690;23.260;2023-04-04T05:35:12;92867.94;;;7.98;100.00
6433;BME280;3249;42.690;23.260;2023-04-04T05:37:44;92872.03;;;8.15;100.00
6433;BME280;3249;42.690;23.260;2023-04-04T05:40:16;92867.44;;;8.17;100.00
6433;BME280;3249;42.690;23.260;2023-04-04T05:42:54;92857.59;;;8.09;100.00
6433;BME280;3249;42.690;23.260;2023-04-04T05:45:29;92872.09;;;8.20;100.00
6433;BME280;3249;42.690;23.260;2023-04-04T05:47:59;92882.47;;;8.25;100.00
6433;BME280;3249;42.690;23.260;2023-04-04T05:50:35;92880.97;;;8.29;100.00
6433;BME280;3249;42.690;23.260;2023-04-04T05:53:07;92892.19;;;8.45;100.00
6433;BME280;3249;42.690;23.260;2023-04-04T05:55:36;92887.22;;;8.55;100.00
6433;BME280;3249;42.690;23.260;2023-04-04T05:58:07;92878.94;;;8.69;100.00
6433;BME280;3249;42.690;23.260;2023-04-04T06:00:56;92881.13;;;8.82;100.00
6433;BME280;3249;42.690;23.260;2023-04-04T06:03:25;92885.38;;;8.93;100.00
6433;BME280;3249;42.690;23.260;2023-04-04T06:05:55;92889.84;;;9.03;100.00
6433;BME280;3249;42.690;23.260;2023-04-04T06:08:28;92888.78;;;9.25;100.00
6433;BME280;3249;42.690;23.260;2023-04-04T06:10:57;92894.59;;;9.42;100.00
6433;BME280;3249;42.690;23.260;2023-04-04T06:13:26;92892.84;;;9.48;100.00
6433;BME280;3249;42.690;23.260;2023-04-04T06:16:01;92898.22;;;9.73;100.00
6433;BME280;3249;42.690;23.260;2023-04-04T06:18:30;92892.03;;;9.16;100.00
6433;BME280;3249;42.690;23.260;2023-04-04T06:20:59;92899.38;;;9.07;100.00
6433;BME280;3249;42.690;23.260;2023-04-04T06:23:30;92902.47;;;8.66;100.00
6433;BME280;3249;42.690;23.260;2023-04-04T06:26:03;92910.47;;;8.70;100.00
6433;BME280;3249;42.690;23.260;2023-04-04T06:28:32;92902.03;;;7.65;100.00
6433;BME280;3249;42.690;23.260;2023-04-04T06:31:04;92903.78;;;7.65;100.00
6433;BME280;3249;42.690;23.260;2023-04-04T06:33:36;92906.03;;;7.17;100.00
6433;BME280;3249;42.690;23.260;2023-04-04T06:36:06;92926.06;;;7.20;100.00
6433;BME280;3249;42.690;23.260;2023-04-04T06:38:38;92937.22;;;7.02;100.00
6433;BME280;3249;42.690;23.260;2023-04-04T06:41:14;92940.94;;;6.83;100.00
6433;BME280;3249;42.690;23.260;2023-04-04T06:43:45;92945.28;;;6.83;100.00
6433;BME280;3249;42.690;23.260;2023-04-04T06:46:14;92957.28;;;6.82;100.00
6433;BME280;3249;42.690;23.260;2023-04-04T06:48:43;92951.66;;;6.57;100.00
6433;BME280;3249;42.690;23.260;2023-04-04T06:51:12;92963.88;;;6.55;100.00
6433;BME280;3249;42.690;23.260;2023-04-04T06:53:47;92966.75;;;6.36;100.00
6433;BME280;3249;42.690;23.260;2023-04-04T06:56:16;92965.09;;;6.07;100.00
6433;BME280;3249;42.690;23.260;2023-04-04T06:58:47;92974.88;;;5.98;100.00
6433;BME280;3249;42.690;23.260;2023-04-04T07:01:16;92980.50;;;5.89;100.00
6433;BME280;3249;42.690;23.260;2023-04-04T07:03:45;92994.50;;;5.86;100.00
6433;BME280;3249;42.690;23.260;2023-04-04T07:06:14;92998.81;;;5.86;100.00
6433;BME280;3249;42.690;23.260;2023-04-04T07:08:47;93011.78;;;5.84;100.00
6433;BME280;3249;42.690;23.260;2023-04-04T07:11:17;93012.59;;;5.37;100.00
6433;BME280;3249;42.690;23.260;2023-04-04T07:13:49;93022.03;;;5.37;100.00
6433;BME280;3249;42.690;23.260;2023-04-04T07:16:18;93032.28;;;5.30;100.00
6433;BME280;3249;42.690;23.260;2023-04-04T07:18:47;93034.44;;;5.33;100.00
6433;BME280;3249;42.690;23.260;2023-04-04T07:21:16;93030.91;;;5.16;100.00
6433;BME280;3249;42.690;23.260;2023-04-04T07:23:48;93045.78;;;5.19;100.00
6433;BME280;3249;42.690;23.260;2023-04-04T07:26:18;93043.94;;;5.08;100.00
6433;BME280;3249;42.690;23.260;2023-04-04T07:28:47;93042.94;;;5.09;100.00
6433;BME280;3249;42.690;23.260;2023-04-04T07:31:16;93035.16;;;5.04;100.00
6433;BME280;3249;42.690;23.260;2023-04-04T07:33:46;93064.63;;;5.00;100.00
6433;BME280;3249;42.690;23.260;2023-04-04T07:36:15;93065.44;;;4.76;100.00
6433;BME280;3249;42.690;23.260;2023-04-04T07:38:44;93069.16;;;4.55;100.00
6433;BME280;3249;42.690;23.260;2023-04-04T07:41:16;93076.66;;;4.50;100.00
6433;BME280;3249;42.690;23.260;2023-04-04T07:43:46;93076.38;;;4.34;100.00
6433;BME280;3249;42.690;23.260;2023-04-04T07:46:15;93088.44;;;4.45;100.00
6433;BME280;3249;42.690;23.260;2023-04-04T07:48:45;93088.59;;;4.50;100.00
6433;BME280;3249;42.690;23.260;2023-04-04T07:51:14;93095.72;;;4.66;100.00
6433;BME280;3249;42.690;23.260;2023-04-04T07:53:43;93087.56;;;4.57;100.00
6433;BME280;3249;42.690;23.260;2023-04-04T07:56:12;93091.25;;;4.37;100.00
6433;BME280;3249;42.690;23.260;2023-04-04T07:58:44;93092.41;;;4.41;100.00
6433;BME280;3249;42.690;23.260;2023-04-04T08:01:15;93095.50;;;4.43;100.00
6433;BME280;3249;42.690;23.260;2023-04-04T08:03:45;93095.84;;;4.53;100.00
6433;BME280;3249;42.690;23.260;2023-04-04T08:06:15;93107.69;;;4.41;100.00
6433;BME280;3249;42.690;23.260;2023-04-04T08:08:44;93108.78;;;4.51;100.00
6433;BME280;3249;42.690;23.260;2023-04-04T08:11:13;93109.25;;;4.42;100.00
6433;BME280;3249;42.690;23.260;2023-04-04T08:13:44;93112.28;;;4.26;100.00
6433;BME280;3249;42.690;23.260;2023-04-04T08:16:14;93103.09;;;4.25;100.00
6433;BME280;3249;42.690;23.260;2023-04-04T08:18:43;93115.47;;;4.46;100.00
6433;BME280;3249;42.690;23.260;2023-04-04T08:21:11;93126.47;;;4.46;100.00
6433;BME280;3249;42.690;23.260;2023-04-04T08:23:40;93129.56;;;4.48;100.00
6433;BME280;3249;42.690;23.260;2023-04-04T08:26:09;93132.31;;;4.47;100.00
6433;BME280;3249;42.690;23.260;2023-04-04T08:28:38;93147.84;;;4.39;100.00
6433;BME280;3249;42.690;23.260;2023-04-04T08:31:10;93148.94;;;4.25;100.00
6433;BME280;3249;42.690;23.260;2023-04-04T08:33:40;93122.84;;;3.98;100.00
6433;BME280;3249;42.690;23.260;2023-04-04T08:36:09;93149.50;;;4.27;100.00
6433;BME280;3249;42.690;23.260;2023-04-04T08:38:39;93155.97;;;4.23;100.00
6433;BME280;3249;42.690;23.260;2023-04-04T08:41:08;93153.03;;;4.26;100.00
6433;BME280;3249;42.690;23.260;2023-04-04T08:43:38;93154.81;;;4.25;100.00
6433;BME280;3249;42.690;23.260;2023-04-04T08:46:12;93155.06;;;4.11;100.00
6433;BME280;3249;42.690;23.260;2023-04-04T08:48:43;93160.50;;;4.21;100.00
6433;BME280;3249;42.690;23.260;2023-04-04T08:51:14;93157.94;;;4.27;100.00
6433;BME280;3249;42.690;23.260;2023-04-04T08:53:44;93159.53;;;4.22;100.00
6433;BME280;3249;42.690;23.260;2023-04-04T08:56:13;93175.56;;;4.29;100.00
6433;BME280;3249;42.690;23.260;2023-04-04T08:58:42;93162.63;;;4.30;100.00
6433;BME280;3249;42.690;23.260;2023-04-04T09:01:13;93175.91;;;4.32;100.00
6433;BME280;3249;42.690;23.260;2023-04-04T09:03:44;93186.94;;;4.26;100.00
6433;BME280;3249;42.690;23.260;2023-04-04T09:06:14;93185.16;;;3.89;100.00
6433;BME280;3249;42.690;23.260;2023-04-04T09:08:44;93180.38;;;4.06;100.00
6433;BME280;3249;42.690;23.260;2023-04-04T09:11:16;93167.09;;;4.04;100.00
6433;BME280;3249;42.690;23.260;2023-04-04T09:13:48;93165.09;;;4.06;100.00
6433;BME280;3249;42.690;23.260;2023-04-04T09:16:21;93179.53;;;4.18;100.00
6433;BME280;3249;42.690;23.260;2023-04-04T09:18:50;93175.78;;;4.21;100.00
6433;BME280;3249;42.690;23.260;2023-04-04T09:21:20;93181.63;;;4.28;100.00
6433;BME280;3249;42.690;23.260;2023-04-04T09:23:57;93185.00;;;4.22;100.00
6433;BME280;3249;42.690;23.260;2023-04-04T09:26:27;93183.03;;;4.24;100.00
6433;BME280;3249;42.690;23.260;2023-04-04T09:28:56;93187.59;;;4.09;100.00
6433;BME280;3249;42.690;23.260;2023-04-04T09:31:27;93186.53;;;4.23;100.00
6433;BME280;3249;42.690;23.260;2023-04-04T09:33:57;93192.38;;;4.30;100.00
6433;BME280;3249;42.690;23.260;2023-04-04T09:36:27;93190.38;;;4.38;100.00
6433;BME280;3249;42.690;23.260;2023-04-04T09:38:56;93203.16;;;4.32;100.00
6433;BME280;3249;42.690;23.260;2023-04-04T09:41:25;93193.22;;;4.24;100.00
6433;BME280;3249;42.690;23.260;2023-04-04T09:43:56;93213.50;;;4.37;100.00
6433;BME280;3249;42.690;23.260;2023-04-04T09:46:28;93203.69;;;4.09;100.00
6433;BME280;3249;42.690;23.260;2023-04-04T09:48:59;93189.47;;;3.89;100.00
6433;BME280;3249;42.690;23.260;2023-04-04T09:51:33;93203.13;;;4.01;100.00
6433;BME280;3249;42.690;23.260;2023-04-04T09:54:03;93214.47;;;4.05;100.00
6433;BME280;3249;42.690;23.260;2023-04-04T09:56:33;93212.25;;;4.15;100.00
6433;BME280;3249;42.690;23.260;2023-04-04T09:59:05;93205.59;;;4.14;100.00
6433;BME280;3249;42.690;23.260;2023-04-04T10:01:38;93217.94;;;4.17;100.00
6433;BME280;3249;42.690;23.260;2023-04-04T10:04:08;93203.41;;;4.24;100.00
6433;BME280;3249;42.690;23.260;2023-04-04T10:06:37;93204.66;;;4.02;100.00
6433;BME280;3249;42.690;23.260;2023-04-04T10:09:07;93189.44;;;3.95;100.00
6433;BME280;3249;42.690;23.260;2023-04-04T10:11:36;93200.38;;;4.02;100.00
6433;BME280;3249;42.690;23.260;2023-04-04T10:14:05;93200.56;;;4.01;100.00
6433;BME280;3249;42.690;23.260;2023-04-04T10:16:36;93216.13;;;4.24;100.00
6433;BME280;3249;42.690;23.260;2023-04-04T10:19:07;93194.81;;;4.18;100.00
6433;BME280;3249;42.690;23.260;2023-04-04T10:21:38;93224.78;;;4.54;100.00
6433;BME280;3249;42.690;23.260;2023-04-04T10:24:08;93222.47;;;4.46;100.00
6433;BME280;3249;42.690;23.260;2023-04-04T10:26:38;93229.25;;;4.58;100.00
6433;BME280;3249;42.690;23.260;2023-04-04T10:29:07;93227.50;;;4.59;100.00
6433;BME280;3249;42.690;23.260;2023-04-04T10:31:40;93223.97;;;4.60;100.00
6433;BME280;3249;42.690;23.260;2023-04-04T10:34:21;93223.50;;;4.38;100.00
6433;BME280;3249;42.690;23.260;2023-04-04T10:37:04;93247.69;;;4.54;100.00
6433;BME280;3249;42.690;23.260;2023-04-04T10:39:38;93247.09;;;4.58;100.00
6433;BME280;3249;42.690;23.260;2023-04-04T10:42:14;93244.63;;;4.39;100.00
6433;BME280;3249;42.690;23.260;2023-04-04T10:44:44;93236.31;;;4.19;100.00
6433;BME280;3249;42.690;23.260;2023-04-04T10:47:17;93251.28;;;4.46;100.00
6433;BME280;3249;42.690;23.260;2023-04-04T10:49:49;93256.75;;;4.50;100.00
6433;BME280;3249;42.690;23.260;2023-04-04T10:52:19;93256.56;;;4.45;100.00
6433;BME280;3249;42.690;23.260;2023-04-04T10:54:50;93258.19;;;4.33;100.00
6433;BME280;3249;42.690;23.260;2023-04-04T10:57:20;93262.19;;;4.16;100.00
6433;BME280;3249;42.690;23.260;2023-04-04T10:59:56;93263.69;;;4.30;100.00
6433;BME280;3249;42.690;23.260;2023-04-04T11:02:46;93271.66;;;4.46;100.00
6433;BME280;3249;42.690;23.260;2023-04-04T11:05:21;93273.09;;;4.36;100.00
6433;BME280;3249;42.690;23.260;2023-04-04T11:07:55;93277.97;;;4.31;100.00
6433;BME280;3249;42.690;23.260;2023-04-04T11:10:26;93250.88;;;4.12;100.00
6433;BME280;3249;42.690;23.260;2023-04-04T11:12:59;93271.66;;;4.02;100.00
6433;BME280;3249;42.690;23.260;2023-04-04T11:15:44;93265.63;;;3.77;100.00
6433;BME280;3249;42.690;23.260;2023-04-04T11:18:19;93271.72;;;3.70;100.00
6433;BME280;3249;42.690;23.260;2023-04-04T11:20:49;93272.91;;;3.67;100.00
6433;BME280;3249;42.690;23.260;2023-04-04T11:23:19;93283.88;;;3.68;100.00
6433;BME280;3249;42.690;23.260;2023-04-04T11:25:51;93292.09;;;3.63;100.00
6433;BME280;3249;42.690;23.260;2023-04-04T11:28:41;93295.22;;;3.72;100.00
6433;BME280;3249;42.690;23.260;2023-04-04T11:31:27;93293.41;;;3.92;100.00
6433;BME280;3249;42.690;23.260;2023-04-04T11:34:02;93298.09;;;3.88;100.00
6433;BME280;3249;42.690;23.260;2023-04-04T11:36:48;93295.59;;;3.82;100.00
6433;BME280;3249;42.690;23.260;2023-04-04T11:39:24;93289.91;;;3.86;100.00
6433;BME280;3249;42.690;23.260;2023-04-04T11:41:56;93299.53;;;3.71;100.00
6433;BME280;3249;42.690;23.260;2023-04-04T11:44:29;93295.63;;;3.69;100.00
6433;BME280;3249;42.690;23.260;2023-04-04T11:47:01;93296.59;;;3.68;100.00
6433;BME280;3249;42.690;23.260;2023-04-04T11:49:36;93292.06;;;3.76;100.00
6433;BME280;3249;42.690;23.260;2023-04-04T11:52:07;93289.94;;;3.67;100.00
6433;BME280;3249;42.690;23.260;2023-04-04T11:54:37;93297.75;;;3.65;100.00
6433;BME280;3249;42.690;23.260;2023-04-04T11:57:06;93296.59;;;3.74;100.00
6433;BME280;3249;42.690;23.260;2023-04-04T11:59:38;93294.81;;;3.68;100.00
6433;BME280;3249;42.690;23.260;2023-04-04T12:02:09;93289.16;;;3.53;100.00
6433;BME280;3249;42.690;23.260;2023-04-04T12:04:40;93288.78;;;3.56;100.00
6433;BME280;3249;42.690;23.260;2023-04-04T12:07:11;93299.53;;;3.45;100.00
6433;BME280;3249;42.690;23.260;2023-04-04T12:09:44;93295.44;;;3.51;100.00
6433;BME280;3249;42.690;23.260;2023-04-04T12:12:14;93292.91;;;3.64;100.00
6433;BME280;3249;42.690;23.260;2023-04-04T12:14:44;93291.72;;;3.60;100.00
6433;BME280;3249;42.690;23.260;2023-04-04T12:17:15;93299.94;;;3.49;100.00
6433;BME280;3249;42.690;23.260;2023-04-04T12:19:46;93299.34;;;3.47;100.00
6433;BME280;3249;42.690;23.260;2023-04-04T12:22:16;93306.97;;;3.47;100.00
6433;BME280;3249;42.690;23.260;2023-04-04T12:24:45;93289.00;;;3.42;100.00
6433;BME280;3249;42.690;23.260;2023-04-04T12:27:14;93302.28;;;3.57;100.00
6433;BME280;3249;42.690;23.260;2023-04-04T12:29:46;93308.16;;;3.64;100.00
6433;BME280;3249;42.690;23.260;2023-04-04T12:32:15;93304.63;;;3.39;100.00
6433;BME280;3249;42.690;23.260;2023-04-04T12:34:47;93304.84;;;3.50;100.00
6433;BME280;3249;42.690;23.260;2023-04-04T12:37:16;93314.03;;;3.58;100.00
6433;BME280;3249;42.690;23.260;2023-04-04T12:39:46;93312.06;;;3.34;100.00
6433;BME280;3249;42.690;23.260;2023-04-04T12:42:20;93301.53;;;3.24;100.00
6433;BME280;3249;42.690;23.260;2023-04-04T12:44:50;93317.16;;;3.21;100.00
6433;BME280;3249;42.690;23.260;2023-04-04T12:47:19;93315.97;;;3.04;100.00
6433;BME280;3249;42.690;23.260;2023-04-04T12:49:53;93330.06;;;3.06;100.00
6433;BME280;3249;42.690;23.260;2023-04-04T12:52:26;93318.91;;;3.01;100.00
6433;BME280;3249;42.690;23.260;2023-04-04T12:55:06;93321.03;;;3.04;100.00
6433;BME280;3249;42.690;23.260;2023-04-04T12:57:37;93318.72;;;3.15;100.00
6433;BME280;3249;42.690;23.260;2023-04-04T13:00:08;93321.88;;;3.24;100.00
6433;BME280;3249;42.690;23.260;2023-04-04T13:02:43;93334.38;;;3.51;100.00
6433;BME280;3249;42.690;23.260;2023-04-04T13:05:15;93320.47;;;3.21;100.00
6433;BME280;3249;42.690;23.260;2023-04-04T13:07:49;93334.75;;;3.16;100.00
6433;BME280;3249;42.690;23.260;2023-04-04T13:10:18;93337.31;;;3.22;100.00
6433;BME280;3249;42.690;23.260;2023-04-04T13:12:54;93335.94;;;3.26;100.00
6433;BME280;3249;42.690;23.260;2023-04-04T13:15:49;93328.91;;;3.22;100.00
6433;BME280;3249;42.690;23.260;2023-04-04T13:18:20;93346.31;;;3.18;100.00
6433;BME280;3249;42.690;23.260;2023-04-04T13:20:53;93337.28;;;3.03;100.00
6433;BME280;3249;42.690;23.260;2023-04-04T13:23:22;93348.06;;;3.05;100.00
6433;BME280;3249;42.690;23.260;2023-04-04T13:25:51;93344.91;;;3.03;100.00
6433;BME280;3249;42.690;23.260;2023-04-04T13:28:21;93360.13;;;2.90;100.00
6433;BME280;3249;42.690;23.260;2023-04-04T13:30:51;93353.63;;;2.68;100.00
6433;BME280;3249;42.690;23.260;2023-04-04T13:33:20;93356.56;;;2.65;100.00